sensor_id;sensor_type;location;lat;lon;timestamp;pressure;altitude;pressure_sealevel;temperature;humidity
30682;BME280;17439;48.092;11.842;2023-04-01T00:01:05;94223.56;;;10.22;61.47
30682;BME280;17439;48.092;11.842;2023-04-01T00:03:33;94218.13;;;10.22;62.34
30682;BME280;17439;48.092;11.842;2023-04-01T00:06:01;94221.19;;;10.20;62.40
30682;BME280;17439;48.092;11.842;2023-04-01T00:08:28;94218.03;;;10.18;62.11
30682;BME280;17439;48.092;11.842;2023-04-01T00:10:55;94221.53;;;10.19;62.61
30682;BME280;17439;48.092;11.842;2023-04-01T00:13:22;94231.66;;;10.09;62.37
30682;BME280;17439;48.092;11.842;2023-04-01T00:15:49;94217.34;;;10.09;62.32
30682;BME280;17439;48.092;11.842;2023-04-01T00:18:16;94213.03;;;10.08;62.24
30682;BME280;17439;48.092;11.842;2023-04-01T00:20:45;94215.41;;;10.09;62.71
30682;BME280;17439;48.092;11.842;2023-04-01T00:23:12;94202.44;;;10.03;62.59
30682;BME280;17439;48.092;11.842;2023-04-01T00:25:39;94217.53;;;10.04;63.12
30682;BME280;17439;48.092;11.842;2023-04-01T00:28:05;94208.53;;;9.99;62.84
30682;BME280;17439;48.092;11.842;2023-04-01T00:30:32;94202.19;;;9.95;62.94
30682;BME280;17439;48.092;11.842;2023-04-01T00:32:59;94205.72;;;9.96;63.29
30682;BME280;17439;48.092;11.842;2023-04-01T00:35:25;94190.81;;;9.90;63.28
30682;BME280;17439;48.092;11.842;2023-04-01T00:37:52;94192.59;;;9.86;63.32
30682;BME280;17439;48.092;11.842;2023-04-01T00:40:28;94184.03;;;9.84;60.39
30682;BME280;17439;48.092;11.842;2023-04-01T00:42:55;94189.91;;;9.86;63.53
30682;BME280;17439;48.092;11.842;2023-04-01T00:45:40;94194.88;;;9.84;62.60
30682;BME280;17439;48.092;11.842;2023-04-01T00:48:10;94195.88;;;9.79;62.75
30682;BME280;17439;48.092;11.842;2023-04-01T00:50:42;94197.47;;;9.80;62.96
30682;BME280;17439;48.092;11.842;2023-04-01T00:53:10;94184.25;;;9.78;63.86
30682;BME280;17439;48.092;11.842;2023-04-01T00:55:42;94206.09;;;9.73;61.25
30682;BME280;17439;48.092;11.842;2023-04-01T00:58:15;94198.00;;;9.73;62.99
30682;BME280;17439;48.092;11.842;2023-04-01T01:00:43;94201.38;;;9.70;64.04
30682;BME280;17439;48.092;11.842;2023-04-01T01:03:12;94199.13;;;9.72;64.39
30682;BME280;17439;48.092;11.842;2023-04-01T01:11:32;94187.72;;;9.67;63.67
30682;BME280;17439;48.092;11.842;2023-04-01T01:17:26;94193.59;;;9.69;62.97
30682;BME280;17439;48.092;11.842;2023-04-01T01:20:17;94177.22;;;9.65;62.39
30682;BME280;17439;48.092;11.842;2023-04-01T01:25:59;94187.84;;;9.70;63.03
30682;BME280;17439;48.092;11.842;2023-04-01T01:36:31;94188.41;;;9.76;64.26
30682;BME280;17439;48.092;11.842;2023-04-01T01:38:59;94192.38;;;9.78;63.89
30682;BME280;17439;48.092;11.842;2023-04-01T01:41:26;94194.09;;;9.83;65.05
30682;BME280;17439;48.092;11.842;2023-04-01T01:43:54;94187.16;;;9.73;60.33
30682;BME280;17439;48.092;11.842;2023-04-01T01:46:24;94185.16;;;9.83;64.19
30682;BME280;17439;48.092;11.842;2023-04-01T01:48:53;94180.22;;;9.85;64.07
30682;BME280;17439;48.092;11.842;2023-04-01T01:51:21;94182.22;;;9.88;64.12
30682;BME280;17439;48.092;11.842;2023-04-01T01:53:49;94179.66;;;9.91;63.90
30682;BME280;17439;48.092;11.842;2023-04-01T01:56:22;94180.09;;;9.93;62.50
30682;BME280;17439;48.092;11.842;2023-04-01T01:58:53;94176.13;;;9.91;61.66
30682;BME280;17439;48.092;11.842;2023-04-01T02:01:28;94170.06;;;9.94;63.03
30682;BME280;17439;48.092;11.842;2023-04-01T02:04:02;94170.84;;;9.94;63.90
30682;BME280;17439;48.092;11.842;2023-04-01T02:06:32;94170.84;;;9.94;63.29
30682;BME280;17439;48.092;11.842;2023-04-01T02:09:03;94174.78;;;9.97;64.68
30682;BME280;17439;48.092;11.842;2023-04-01T02:11:34;94173.22;;;9.96;63.75
30682;BME280;17439;48.092;11.842;2023-04-01T02:14:11;94180.69;;;9.99;62.71
30682;BME280;17439;48.092;11.842;2023-04-01T02:16:51;94192.19;;;9.96;64.53
30682;BME280;17439;48.092;11.842;2023-04-01T02:19:22;94196.00;;;9.95;63.84
30682;BME280;17439;48.092;11.842;2023-04-01T02:21:55;94200.31;;;9.96;64.16
30682;BME280;17439;48.092;11.842;2023-04-01T02:24:25;94196.44;;;9.97;65.26
30682;BME280;17439;48.092;11.842;2023-04-01T02:26:53;94198.38;;;9.96;65.63
30682;BME280;17439;48.092;11.842;2023-04-01T02:29:21;94200.31;;;9.96;65.23
30682;BME280;17439;48.092;11.842;2023-04-01T02:31:50;94208.41;;;9.96;65.10
30682;BME280;17439;48.092;11.842;2023-04-01T02:34:18;94197.13;;;9.94;65.71
30682;BME280;17439;48.092;11.842;2023-04-01T02:36:47;94200.31;;;9.96;65.16
30682;BME280;17439;48.092;11.842;2023-04-01T02:39:14;94194.41;;;9.94;65.25
30682;BME280;17439;48.092;11.842;2023-04-01T02:41:43;94199.72;;;9.90;63.17
30682;BME280;17439;48.092;11.842;2023-04-01T02:44:12;94190.81;;;9.90;65.18
30682;BME280;17439;48.092;11.842;2023-04-01T02:46:40;94204.34;;;9.90;65.40
30682;BME280;17439;48.092;11.842;2023-04-01T02:49:07;94200.72;;;9.86;65.08
30682;BME280;17439;48.092;11.842;2023-04-01T02:51:34;94208.06;;;9.85;64.93
30682;BME280;17439;48.092;11.842;2023-04-01T02:54:00;94216.63;;;9.87;65.14
30682;BME280;17439;48.092;11.842;2023-04-01T02:56:28;94214.47;;;9.80;64.19
30682;BME280;17439;48.092;11.842;2023-04-01T02:58:54;94211.56;;;9.86;63.99
30682;BME280;17439;48.092;11.842;2023-04-01T03:01:21;94222.50;;;9.89;64.82
30682;BME280;17439;48.092;11.842;2023-04-01T03:03:48;94223.31;;;9.90;64.71
30682;BME280;17439;48.092;11.842;2023-04-01T03:06:16;94221.81;;;9.92;65.04
30682;BME280;17439;48.092;11.842;2023-04-01T03:08:43;94219.25;;;9.96;64.90
30682;BME280;17439;48.092;11.842;2023-04-01T03:11:11;94212.59;;;9.93;64.44
30682;BME280;17439;48.092;11.842;2023-04-01T03:13:38;94227.22;;;9.92;64.79
30682;BME280;17439;48.092;11.842;2023-04-01T03:16:06;94219.94;;;9.93;64.33
30682;BME280;17439;48.092;11.842;2023-04-01T03:18:34;94222.63;;;9.93;64.27
30682;BME280;17439;48.092;11.842;2023-04-01T03:21:22;94218.66;;;9.90;59.46
30682;BME280;17439;48.092;11.842;2023-04-01T03:23:49;94222.03;;;9.87;62.74
30682;BME280;17439;48.092;11.842;2023-04-01T03:26:16;94229.59;;;9.94;64.47
30682;BME280;17439;48.092;11.842;2023-04-01T03:28:43;94230.41;;;9.94;64.32
30682;BME280;17439;48.092;11.842;2023-04-01T03:31:11;94232.31;;;9.94;63.81
30682;BME280;17439;48.092;11.842;2023-04-01T03:33:45;94232.78;;;9.96;64.70
30682;BME280;17439;48.092;11.842;2023-04-01T03:36:12;94230.88;;;9.96;64.76
30682;BME280;17439;48.092;11.842;2023-04-01T03:38:42;94235.03;;;9.94;62.23
30682;BME280;17439;48.092;11.842;2023-04-01T03:41:15;94237.72;;;9.94;60.89
30682;BME280;17439;48.092;11.842;2023-04-01T03:43:43;94249.69;;;9.93;63.47
30682;BME280;17439;48.092;11.842;2023-04-01T03:46:10;94238.88;;;9.93;64.83
30682;BME280;17439;48.092;11.842;2023-04-01T03:48:37;94246.53;;;9.91;63.93
30682;BME280;17439;48.092;11.842;2023-04-01T03:51:07;94258.72;;;9.85;61.55
30682;BME280;17439;48.092;11.842;2023-04-01T03:53:35;94237.72;;;9.82;63.78
30682;BME280;17439;48.092;11.842;2023-04-01T03:56:08;94259.38;;;9.82;62.57
30682;BME280;17439;48.092;11.842;2023-04-01T03:58:36;94245.38;;;9.79;63.63
30682;BME280;17439;48.092;11.842;2023-04-01T04:01:16;94246.84;;;9.77;61.88
30682;BME280;17439;48.092;11.842;2023-04-01T04:03:44;94250.41;;;9.69;63.08
30682;BME280;17439;48.092;11.842;2023-04-01T04:06:13;94249.41;;;9.73;63.89
30682;BME280;17439;48.092;11.842;2023-04-01T04:08:40;94245.16;;;9.72;64.12
30682;BME280;17439;48.092;11.842;2023-04-01T04:11:07;94256.63;;;9.69;64.26
30682;BME280;17439;48.092;11.842;2023-04-01T04:13:37;94242.50;;;9.63;62.36
30682;BME280;17439;48.092;11.842;2023-04-01T04:16:05;94259.22;;;9.66;63.72
30682;BME280;17439;48.092;11.842;2023-04-01T04:18:33;94255.72;;;9.65;64.18
30682;BME280;17439;48.092;11.842;2023-04-01T04:20:59;94250.28;;;9.65;64.02
30682;BME280;17439;48.092;11.842;2023-04-01T04:23:26;94248.59;;;9.60;63.42
30682;BME280;17439;48.092;11.842;2023-04-01T04:26:00;94246.22;;;9.59;62.60
30682;BME280;17439;48.092;11.842;2023-04-01T04:28:29;94251.19;;;9.57;64.27
30682;BME280;17439;48.092;11.842;2023-04-01T04:30:57;94248.69;;;9.52;63.96
30682;BME280;17439;48.092;11.842;2023-04-01T04:33:25;94257.78;;;9.47;63.33
30682;BME280;17439;48.092;11.842;2023-04-01T04:35:55;94260.84;;;9.46;62.88
30682;BME280;17439;48.092;11.842;2023-04-01T04:38:23;94261.28;;;9.48;64.46
30682;BME280;17439;48.092;11.842;2023-04-01T04:40:50;94262.09;;;9.48;64.96
30682;BME280;17439;48.092;11.842;2023-04-01T04:43:18;94260.84;;;9.46;64.99
30682;BME280;17439;48.092;11.842;2023-04-01T04:45:45;94262.88;;;9.49;65.03
30682;BME280;17439;48.092;11.842;2023-04-01T04:48:14;94260.94;;;9.49;65.18
30682;BME280;17439;48.092;11.842;2023-04-01T04:50:42;94267.97;;;9.50;65.39
30682;BME280;17439;48.092;11.842;2023-04-01T04:53:10;94255.22;;;9.51;65.53
30682;BME280;17439;48.092;11.842;2023-04-01T04:55:37;94264.47;;;9.50;65.14
30682;BME280;17439;48.092;11.842;2023-04-01T04:58:24;94280.22;;;9.48;65.09
30682;BME280;17439;48.092;11.842;2023-04-01T05:00:51;94266.25;;;9.46;64.53
30682;BME280;17439;48.092;11.842;2023-04-01T05:03:29;94274.38;;;9.46;64.47
30682;BME280;17439;48.092;11.842;2023-04-01T05:05:56;94277.63;;;9.51;64.82
30682;BME280;17439;48.092;11.842;2023-04-01T05:08:23;94266.38;;;9.49;64.83
30682;BME280;17439;48.092;11.842;2023-04-01T05:10:49;94274.94;;;9.51;65.33
30682;BME280;17439;48.092;11.842;2023-04-01T05:13:19;94267.63;;;9.52;65.35
30682;BME280;17439;48.092;11.842;2023-04-01T05:15:46;94271.56;;;9.54;65.09
30682;BME280;17439;48.092;11.842;2023-04-01T05:18:13;94279.00;;;9.57;65.65
30682;BME280;17439;48.092;11.842;2023-04-01T05:20:48;94274.88;;;9.60;62.23
30682;BME280;17439;48.092;11.842;2023-04-01T05:23:17;94277.56;;;9.60;65.03
30682;BME280;17439;48.092;11.842;2023-04-01T05:25:44;94281.88;;;9.61;64.92
30682;BME280;17439;48.092;11.842;2023-04-01T05:28:11;94285.59;;;9.69;65.64
30682;BME280;17439;48.092;11.842;2023-04-01T05:30:41;94273.66;;;9.70;62.38
30682;BME280;17439;48.092;11.842;2023-04-01T05:33:38;94276.63;;;9.77;65.36
30682;BME280;17439;48.092;11.842;2023-04-01T05:36:10;94280.22;;;9.81;65.26
30682;BME280;17439;48.092;11.842;2023-04-01T05:38:37;94274.97;;;9.85;65.18
30682;BME280;17439;48.092;11.842;2023-04-01T05:41:07;94275.84;;;9.89;64.43
30682;BME280;17439;48.092;11.842;2023-04-01T05:43:39;94275.53;;;9.90;63.18
30682;BME280;17439;48.092;11.842;2023-04-01T05:46:28;94272.16;;;9.93;64.54
30682;BME280;17439;48.092;11.842;2023-04-01T05:49:03;94276.56;;;9.98;64.40
30682;BME280;17439;48.092;11.842;2023-04-01T05:51:30;94272.84;;;10.03;65.08
30682;BME280;17439;48.092;11.842;2023-04-01T05:53:57;94269.81;;;10.04;64.03
30682;BME280;17439;48.092;11.842;2023-04-01T05:56:23;94272.19;;;10.06;64.33
30682;BME280;17439;48.092;11.842;2023-04-01T05:58:52;94282.00;;;10.10;64.15
30682;BME280;17439;48.092;11.842;2023-04-01T06:01:21;94280.84;;;10.11;63.67
30682;BME280;17439;48.092;11.842;2023-04-01T06:03:48;94274.66;;;10.11;62.75
30682;BME280;17439;48.092;11.842;2023-04-01T06:06:26;94278.03;;;10.08;59.62
30682;BME280;17439;48.092;11.842;2023-04-01T06:09:27;94277.03;;;10.12;60.63
30682;BME280;17439;48.092;11.842;2023-04-01T06:14:57;94271.84;;;10.20;59.45
30682;BME280;17439;48.092;11.842;2023-04-01T06:17:43;94271.16;;;10.23;59.55
30682;BME280;17439;48.092;11.842;2023-04-01T06:31:46;94285.78;;;10.43;61.64
30682;BME280;17439;48.092;11.842;2023-04-01T06:34:46;94289.06;;;10.48;62.65
30682;BME280;17439;48.092;11.842;2023-04-01T06:37:41;94274.84;;;10.51;59.72
30682;BME280;17439;48.092;11.842;2023-04-01T06:46:48;94262.28;;;10.59;58.73
30682;BME280;17439;48.092;11.842;2023-04-01T06:52:55;94264.47;;;10.66;60.88
30682;BME280;17439;48.092;11.842;2023-04-01T06:55:48;94280.38;;;10.67;60.38
30682;BME280;17439;48.092;11.842;2023-04-01T06:58:44;94275.06;;;10.71;58.59
30682;BME280;17439;48.092;11.842;2023-04-01T07:01:18;94274.38;;;10.74;60.23
30682;BME280;17439;48.092;11.842;2023-04-01T07:03:57;94273.22;;;10.75;60.10
30682;BME280;17439;48.092;11.842;2023-04-01T07:06:30;94276.41;;;10.77;60.60
30682;BME280;17439;48.092;11.842;2023-04-01T07:09:02;94280.34;;;10.80;60.54
30682;BME280;17439;48.092;11.842;2023-04-01T07:11:53;94277.31;;;10.81;60.67
30682;BME280;17439;48.092;11.842;2023-04-01T07:14:50;94281.16;;;10.80;60.53
30682;BME280;17439;48.092;11.842;2023-04-01T07:17:22;94281.69;;;10.86;60.58
30682;BME280;17439;48.092;11.842;2023-04-01T07:20:02;94303.50;;;10.89;59.69
30682;BME280;17439;48.092;11.842;2023-04-01T07:22:35;94286.22;;;10.94;60.99
30682;BME280;17439;48.092;11.842;2023-04-01T07:25:34;94299.31;;;11.04;60.21
30682;BME280;17439;48.092;11.842;2023-04-01T07:28:20;94294.44;;;11.10;62.26
30682;BME280;17439;48.092;11.842;2023-04-01T07:33:44;94292.28;;;11.16;58.70
30682;BME280;17439;48.092;11.842;2023-04-01T07:36:48;94292.13;;;11.24;57.43
30682;BME280;17439;48.092;11.842;2023-04-01T07:42:13;94295.06;;;11.32;57.56
30682;BME280;17439;48.092;11.842;2023-04-01T07:45:09;94300.00;;;11.42;56.59
30682;BME280;17439;48.092;11.842;2023-04-01T07:47:55;94291.75;;;11.51;58.08
30682;BME280;17439;48.092;11.842;2023-04-01T07:50:31;94306.31;;;11.58;59.57
30682;BME280;17439;48.092;11.842;2023-04-01T07:59:03;94304.06;;;11.76;57.21
30682;BME280;17439;48.092;11.842;2023-04-01T08:07:15;94292.72;;;11.87;55.86
30682;BME280;17439;48.092;11.842;2023-04-01T08:13:34;94302.50;;;12.04;56.33
30682;BME280;17439;48.092;11.842;2023-04-01T08:16:41;94299.63;;;12.12;56.04
30682;BME280;17439;48.092;11.842;2023-04-01T08:19:43;94300.41;;;12.13;52.27
30682;BME280;17439;48.092;11.842;2023-04-01T08:22:23;94288.94;;;12.20;54.76
30682;BME280;17439;48.092;11.842;2023-04-01T08:24:57;94304.47;;;12.19;54.54
30682;BME280;17439;48.092;11.842;2023-04-01T08:27:34;94293.59;;;12.19;50.93
30682;BME280;17439;48.092;11.842;2023-04-01T08:32:56;94283.44;;;12.32;52.15
30682;BME280;17439;48.092;11.842;2023-04-01T08:35:29;94294.38;;;12.36;56.43
30682;BME280;17439;48.092;11.842;2023-04-01T08:38:06;94283.09;;;12.33;51.42
30682;BME280;17439;48.092;11.842;2023-04-01T08:40:55;94275.22;;;12.44;53.45
30682;BME280;17439;48.092;11.842;2023-04-01T08:57:31;94261.97;;;12.94;55.02
30682;BME280;17439;48.092;11.842;2023-04-01T09:00:34;94256.00;;;13.04;56.08
30682;BME280;17439;48.092;11.842;2023-04-01T09:08:54;94266.00;;;13.36;53.13
30682;BME280;17439;48.092;11.842;2023-04-01T09:17:45;94256.84;;;13.44;51.49
30682;BME280;17439;48.092;11.842;2023-04-01T09:23:29;94261.09;;;13.41;51.45
30682;BME280;17439;48.092;11.842;2023-04-01T09:28:53;94268.38;;;13.37;49.83
30682;BME280;17439;48.092;11.842;2023-04-01T09:31:50;94249.31;;;13.37;52.07
30682;BME280;17439;48.092;11.842;2023-04-01T09:34:57;94253.44;;;13.31;49.91
30682;BME280;17439;48.092;11.842;2023-04-01T09:37:36;94244.38;;;13.43;50.63
30682;BME280;17439;48.092;11.842;2023-04-01T09:40:18;94247.88;;;13.43;49.51
30682;BME280;17439;48.092;11.842;2023-04-01T09:42:56;94253.03;;;13.49;49.74
30682;BME280;17439;48.092;11.842;2023-04-01T09:51:50;94237.47;;;13.88;49.13
30682;BME280;17439;48.092;11.842;2023-04-01T09:57:39;94246.75;;;14.07;50.24
30682;BME280;17439;48.092;11.842;2023-04-01T10:06:58;94241.97;;;14.23;49.43
30682;BME280;17439;48.092;11.842;2023-04-01T10:10:07;94229.25;;;14.31;49.33
30682;BME280;17439;48.092;11.842;2023-04-01T10:13:05;94228.94;;;14.36;50.09
30682;BME280;17439;48.092;11.842;2023-04-01T10:24:18;94210.09;;;14.50;45.56
30682;BME280;17439;48.092;11.842;2023-04-01T10:27:09;94212.94;;;14.58;48.87
30682;BME280;17439;48.092;11.842;2023-04-01T10:38:55;94195.56;;;14.43;43.42
30682;BME280;17439;48.092;11.842;2023-04-01T10:56:29;94205.59;;;14.62;46.35
30682;BME280;17439;48.092;11.842;2023-04-01T11:05:58;94195.91;;;14.64;48.45
30682;BME280;17439;48.092;11.842;2023-04-01T11:08:48;94213.66;;;14.55;46.75
30682;BME280;17439;48.092;11.842;2023-04-01T11:14:54;94214.22;;;14.41;48.78
30682;BME280;17439;48.092;11.842;2023-04-01T11:40:52;94262.50;;;13.35;48.98
30682;BME280;17439;48.092;11.842;2023-04-01T11:43:54;94260.03;;;13.30;48.91
30682;BME280;17439;48.092;11.842;2023-04-01T11:47:09;94247.16;;;13.27;48.57
30682;BME280;17439;48.092;11.842;2023-04-01T11:49:50;94246.34;;;13.27;50.64
30682;BME280;17439;48.092;11.842;2023-04-01T11:52:40;94261.28;;;13.33;53.92
30682;BME280;17439;48.092;11.842;2023-04-01T11:58:06;94272.63;;;13.35;53.65
30682;BME280;17439;48.092;11.842;2023-04-01T12:01:04;94262.75;;;13.30;51.69
30682;BME280;17439;48.092;11.842;2023-04-01T12:06:49;94266.97;;;13.28;51.55
30682;BME280;17439;48.092;11.842;2023-04-01T12:12:12;94293.19;;;13.16;53.83
30682;BME280;17439;48.092;11.842;2023-04-01T12:15:13;94303.34;;;13.19;54.82
30682;BME280;17439;48.092;11.842;2023-04-01T12:17:55;94293.38;;;13.07;53.15
30682;BME280;17439;48.092;11.842;2023-04-01T12:20:38;94301.91;;;13.06;53.97
30682;BME280;17439;48.092;11.842;2023-04-01T12:31:47;94306.84;;;12.52;55.17
30682;BME280;17439;48.092;11.842;2023-04-01T12:37:15;94311.94;;;12.38;57.63
30682;BME280;17439;48.092;11.842;2023-04-01T12:45:44;94330.81;;;12.03;56.78
30682;BME280;17439;48.092;11.842;2023-04-01T12:48:18;94328.69;;;11.96;58.05
30682;BME280;17439;48.092;11.842;2023-04-01T13:02:40;94321.44;;;11.31;60.81
30682;BME280;17439;48.092;11.842;2023-04-01T13:05:28;94307.97;;;11.22;62.31
30682;BME280;17439;48.092;11.842;2023-04-01T13:10:50;94303.91;;;11.16;63.21
30682;BME280;17439;48.092;11.842;2023-04-01T13:13:47;94307.78;;;11.15;62.13
30682;BME280;17439;48.092;11.842;2023-04-01T13:19:31;94319.66;;;11.11;63.21
30682;BME280;17439;48.092;11.842;2023-04-01T13:25:00;94312.09;;;11.04;62.96
30682;BME280;17439;48.092;11.842;2023-04-01T13:27:39;94310.06;;;11.01;63.81
30682;BME280;17439;48.092;11.842;2023-04-01T13:36:03;94313.66;;;10.93;64.08
30682;BME280;17439;48.092;11.842;2023-04-01T13:41:35;94316.84;;;10.95;65.00
30682;BME280;17439;48.092;11.842;2023-04-01T13:44:13;94315.16;;;10.90;64.84
30682;BME280;17439;48.092;11.842;2023-04-01T13:49:41;94322.59;;;10.93;65.45
30682;BME280;17439;48.092;11.842;2023-04-01T13:55:25;94321.16;;;10.83;63.25
30682;BME280;17439;48.092;11.842;2023-04-01T14:16:55;94324.41;;;10.77;63.23
30682;BME280;17439;48.092;11.842;2023-04-01T14:23:11;94319.13;;;10.80;62.23
30682;BME280;17439;48.092;11.842;2023-04-01T14:25:51;94317.84;;;10.78;63.06
30682;BME280;17439;48.092;11.842;2023-04-01T14:31:22;94312.34;;;10.86;64.49
30682;BME280;17439;48.092;11.842;2023-04-01T14:34:00;94325.91;;;10.86;62.38
30682;BME280;17439;48.092;11.842;2023-04-01T14:36:37;94323.16;;;10.99;63.99
30682;BME280;17439;48.092;11.842;2023-04-01T14:39:29;94320.00;;;11.09;64.56
30682;BME280;17439;48.092;11.842;2023-04-01T14:42:21;94312.66;;;10.97;62.71
30682;BME280;17439;48.092;11.842;2023-04-01T14:50:13;94324.06;;;11.03;63.52
30682;BME280;17439;48.092;11.842;2023-04-01T14:52:54;94321.78;;;11.05;65.29
30682;BME280;17439;48.092;11.842;2023-04-01T14:55:32;94327.66;;;11.07;64.67
30682;BME280;17439;48.092;11.842;2023-04-01T14:58:11;94330.16;;;11.12;65.96
30682;BME280;17439;48.092;11.842;2023-04-01T15:06:31;94331.50;;;11.18;65.29
30682;BME280;17439;48.092;11.842;2023-04-01T15:14:59;94343.00;;;11.28;62.33
30682;BME280;17439;48.092;11.842;2023-04-01T15:23:31;94333.63;;;11.25;64.63
30682;BME280;17439;48.092;11.842;2023-04-01T15:26:13;94340.44;;;11.19;61.60
30682;BME280;17439;48.092;11.842;2023-04-01T15:28:52;94334.88;;;11.28;64.48
30682;BME280;17439;48.092;11.842;2023-04-01T15:31:40;94337.72;;;11.31;64.45
30682;BME280;17439;48.092;11.842;2023-04-01T15:45:17;94347.88;;;11.34;63.20
30682;BME280;17439;48.092;11.842;2023-04-01T15:50:54;94350.53;;;11.47;64.73
30682;BME280;17439;48.092;11.842;2023-04-01T15:59:03;94351.13;;;11.40;60.46
30682;BME280;17439;48.092;11.842;2023-04-01T16:04:32;94344.78;;;11.48;65.07
30682;BME280;17439;48.092;11.842;2023-04-01T16:07:38;94350.19;;;11.48;61.05
30682;BME280;17439;48.092;11.842;2023-04-01T16:10:25;94349.97;;;11.53;63.31
30682;BME280;17439;48.092;11.842;2023-04-01T16:16:08;94345.78;;;11.56;59.74
30682;BME280;17439;48.092;11.842;2023-04-01T16:22:05;94347.22;;;11.66;61.16
30682;BME280;17439;48.092;11.842;2023-04-01T16:24:43;94352.78;;;11.57;61.30
30682;BME280;17439;48.092;11.842;2023-04-01T16:29:51;94370.97;;;11.69;61.19
30682;BME280;17439;48.092;11.842;2023-04-01T16:38:32;94359.66;;;11.67;60.38
30682;BME280;17439;48.092;11.842;2023-04-01T16:43:45;94369.75;;;11.66;62.32
30682;BME280;17439;48.092;11.842;2023-04-01T16:57:19;94357.28;;;11.65;60.04
30682;BME280;17439;48.092;11.842;2023-04-01T17:00:09;94368.41;;;11.60;58.19
30682;BME280;17439;48.092;11.842;2023-04-01T17:02:50;94377.13;;;11.53;58.98
30682;BME280;17439;48.092;11.842;2023-04-01T17:05:20;94374.16;;;11.58;60.87
30682;BME280;17439;48.092;11.842;2023-04-01T17:11:18;94380.38;;;11.59;60.70
30682;BME280;17439;48.092;11.842;2023-04-01T17:17:28;94382.09;;;11.51;56.83
30682;BME280;17439;48.092;11.842;2023-04-01T17:22:42;94387.16;;;11.53;60.69
30682;BME280;17439;48.092;11.842;2023-04-01T17:27:59;94386.97;;;11.46;61.43
30682;BME280;17439;48.092;11.842;2023-04-01T17:30:36;94394.09;;;11.38;59.16
30682;BME280;17439;48.092;11.842;2023-04-01T17:33:33;94401.34;;;11.34;59.04
30682;BME280;17439;48.092;11.842;2023-04-01T17:44:21;94411.16;;;11.26;58.48
30682;BME280;17439;48.092;11.842;2023-04-01T17:47:22;94413.78;;;11.22;56.40
30682;BME280;17439;48.092;11.842;2023-04-01T17:58:13;94406.06;;;11.24;58.33
30682;BME280;17439;48.092;11.842;2023-04-01T18:03:45;94419.31;;;11.26;58.20
30682;BME280;17439;48.092;11.842;2023-04-01T18:06:24;94411.06;;;11.22;59.67
30682;BME280;17439;48.092;11.842;2023-04-01T18:09:05;94417.28;;;11.23;58.98
30682;BME280;17439;48.092;11.842;2023-04-01T18:12:04;94417.28;;;11.23;60.50
30682;BME280;17439;48.092;11.842;2023-04-01T18:22:58;94428.03;;;11.19;59.38
30682;BME280;17439;48.092;11.842;2023-04-01T18:25:32;94432.31;;;11.20;60.48
30682;BME280;17439;48.092;11.842;2023-04-01T18:28:17;94432.31;;;11.20;62.18
30682;BME280;17439;48.092;11.842;2023-04-01T18:30:58;94456.84;;;11.12;57.73
30682;BME280;17439;48.092;11.842;2023-04-01T18:36:21;94459.53;;;11.12;59.97
30682;BME280;17439;48.092;11.842;2023-04-01T18:39:01;94446.19;;;10.94;56.35
30682;BME280;17439;48.092;11.842;2023-04-01T18:41:36;94457.84;;;11.07;59.12
30682;BME280;17439;48.092;11.842;2023-04-01T18:44:27;94473.34;;;11.06;60.37
30682;BME280;17439;48.092;11.842;2023-04-01T18:47:05;94469.59;;;10.99;59.22
30682;BME280;17439;48.092;11.842;2023-04-01T18:52:28;94470.72;;;10.85;59.91
30682;BME280;17439;48.092;11.842;2023-04-01T18:58:16;94480.81;;;10.64;58.76
30682;BME280;17439;48.092;11.842;2023-04-01T19:00:56;94481.03;;;10.59;58.79
30682;BME280;17439;48.092;11.842;2023-04-01T19:03:40;94482.16;;;10.58;60.46
30682;BME280;17439;48.092;11.842;2023-04-01T19:06:21;94488.59;;;10.53;60.55
30682;BME280;17439;48.092;11.842;2023-04-01T19:08:51;94478.41;;;10.50;61.80
30682;BME280;17439;48.092;11.842;2023-04-01T19:11:30;94473.78;;;10.50;62.18
30682;BME280;17439;48.092;11.842;2023-04-01T19:14:39;94473.41;;;10.40;60.15
30682;BME280;17439;48.092;11.842;2023-04-01T19:20:04;94482.13;;;10.45;61.67
30682;BME280;17439;48.092;11.842;2023-04-01T19:22:49;94492.16;;;10.45;60.39
30682;BME280;17439;48.092;11.842;2023-04-01T19:25:34;94496.91;;;10.48;61.17
30682;BME280;17439;48.092;11.842;2023-04-01T19:30:57;94497.25;;;10.46;60.58
30682;BME280;17439;48.092;11.842;2023-04-01T19:33:57;94496.56;;;10.49;61.45
30682;BME280;17439;48.092;11.842;2023-04-01T19:36:54;94487.00;;;10.52;61.55
30682;BME280;17439;48.092;11.842;2023-04-01T19:39:44;94486.66;;;10.53;61.93
30682;BME280;17439;48.092;11.842;2023-04-01T19:42:32;94490.94;;;10.55;60.13
30682;BME280;17439;48.092;11.842;2023-04-01T19:47:57;94500.22;;;10.53;59.11
30682;BME280;17439;48.092;11.842;2023-04-01T19:50:40;94498.41;;;10.58;59.49
30682;BME280;17439;48.092;11.842;2023-04-01T19:53:28;94501.59;;;10.60;59.43
30682;BME280;17439;48.092;11.842;2023-04-01T19:56:07;94509.06;;;10.63;60.24
30682;BME280;17439;48.092;11.842;2023-04-01T19:58:50;94505.53;;;10.62;60.56
30682;BME280;17439;48.092;11.842;2023-04-01T20:02:03;94505.09;;;10.60;59.14
30682;BME280;17439;48.092;11.842;2023-04-01T20:04:42;94509.06;;;10.63;60.73
30682;BME280;17439;48.092;11.842;2023-04-01T20:07:28;94521.81;;;10.62;59.27
30682;BME280;17439;48.092;11.842;2023-04-01T20:10:25;94523.63;;;10.58;59.45
30682;BME280;17439;48.092;11.842;2023-04-01T20:15:36;94525.50;;;10.58;59.81
30682;BME280;17439;48.092;11.842;2023-04-01T20:18:14;94518.03;;;10.55;58.30
30682;BME280;17439;48.092;11.842;2023-04-01T20:20:57;94527.09;;;10.59;60.77
30682;BME280;17439;48.092;11.842;2023-04-01T20:23:45;94528.88;;;10.55;59.46
30682;BME280;17439;48.092;11.842;2023-04-01T20:26:20;94522.56;;;10.50;58.39